Yokkaichi, Japan
Current Conditions -  °F | °C
As of 4:30 PM on Sunday 26 Oct 2014 (Local Time) from RJGG Reporting Station
Scattered Clouds Scattered Clouds  
Wind Chill: 70°   Ceiling: Unl
Heat Index: 70°   Visibility: 6mi
Dew Point: 63°   Wind: 6mph
Humidity: 78%   Direction: 130°SE
Pressure: 30.03"   Gusts: NA
Location:  34.97°N, 136.64°E
Report Text: RJGG 260730Z 13005KT 090V160 9999 FEW015 SCT/// 21/17 Q1017 NOSIG
Loading
Personal Weather Stations






























Interactive Weather Map
Tropical Storm Tracking
New forecast layout! Learn more

10-Day Weather Forecast

Advertisements
Track Severe Weather on mobile